sensor_id;sensor_type;location;lat;lon;timestamp;pressure;altitude;pressure_sealevel;temperature;humidity
37648;BME280;23490;53.656;10.076;2022-12-07T00:01:23;99835.19;;;-145.95;100.00
37648;BME280;23490;53.656;10.076;2022-12-07T00:03:51;99847.59;;;-145.95;100.00
37648;BME280;23490;53.656;10.076;2022-12-07T00:06:17;99868.25;;;-145.95;100.00
37648;BME280;23490;53.656;10.076;2022-12-07T00:08:43;99864.13;;;-145.95;100.00
37648;BME280;23490;53.656;10.076;2022-12-07T00:11:17;99868.25;;;-145.95;100.00
37648;BME280;23490;53.656;10.076;2022-12-07T00:13:43;99851.72;;;-145.95;100.00
37648;BME280;23490;53.656;10.076;2022-12-07T00:16:17;99901.31;;;-145.95;100.00
37648;BME280;23490;53.656;10.076;2022-12-07T00:18:44;99864.13;;;-145.95;100.00
37648;BME280;23490;53.656;10.076;2022-12-07T00:21:12;99868.25;;;-145.95;100.00
37648;BME280;23490;53.656;10.076;2022-12-07T00:23:39;99911.63;;;-145.95;100.00
37648;BME280;23490;53.656;10.076;2022-12-07T00:26:06;99860.00;;;-145.95;100.00
37648;BME280;23490;53.656;10.076;2022-12-07T00:28:32;99851.72;;;-145.95;100.00
37648;BME280;23490;53.656;10.076;2022-12-07T00:31:06;99843.47;;;-145.95;100.00
37648;BME280;23490;53.656;10.076;2022-12-07T00:33:33;99886.84;;;-145.95;100.00
37648;BME280;23490;53.656;10.076;2022-12-07T00:36:00;99872.38;;;-145.95;100.00
37648;BME280;23490;53.656;10.076;2022-12-07T00:38:29;99839.34;;;-145.95;100.00
37648;BME280;23490;53.656;10.076;2022-12-07T00:40:59;99880.66;;;-145.95;100.00
37648;BME280;23490;53.656;10.076;2022-12-07T00:43:25;99826.94;;;-145.95;100.00
37648;BME280;23490;53.656;10.076;2022-12-07T00:45:51;99880.66;;;-145.95;100.00
37648;BME280;23490;53.656;10.076;2022-12-07T00:48:16;99874.44;;;-145.95;100.00
37648;BME280;23490;53.656;10.076;2022-12-07T00:50:41;99839.34;;;-145.95;100.00
37648;BME280;23490;53.656;10.076;2022-12-07T00:53:07;99855.84;;;-145.95;100.00
37648;BME280;23490;53.656;10.076;2022-12-07T00:55:33;99884.78;;;-145.95;100.00
37648;BME280;23490;53.656;10.076;2022-12-07T00:57:58;99868.25;;;-145.95;100.00
37648;BME280;23490;53.656;10.076;2022-12-07T01:00:24;99855.84;;;-145.95;100.00
37648;BME280;23490;53.656;10.076;2022-12-07T01:02:49;99874.44;;;-145.95;100.00
37648;BME280;23490;53.656;10.076;2022-12-07T01:05:14;99901.31;;;-145.95;100.00
37648;BME280;23490;53.656;10.076;2022-12-07T01:07:40;99903.38;;;-145.95;100.00
37648;BME280;23490;53.656;10.076;2022-12-07T01:10:06;99816.63;;;-145.95;100.00
37648;BME280;23490;53.656;10.076;2022-12-07T01:12:31;99860.00;;;-145.95;100.00
37648;BME280;23490;53.656;10.076;2022-12-07T01:14:57;99868.25;;;-145.95;100.00
37648;BME280;23490;53.656;10.076;2022-12-07T01:17:22;99882.72;;;-145.95;100.00
37648;BME280;23490;53.656;10.076;2022-12-07T01:19:47;99868.25;;;-145.95;100.00
37648;BME280;23490;53.656;10.076;2022-12-07T01:22:13;99909.56;;;-145.95;100.00
37648;BME280;23490;53.656;10.076;2022-12-07T01:24:38;99866.19;;;-145.95;100.00
37648;BME280;23490;53.656;10.076;2022-12-07T01:27:03;99880.66;;;-145.95;100.00
37648;BME280;23490;53.656;10.076;2022-12-07T01:29:29;99901.31;;;-145.95;100.00
37648;BME280;23490;53.656;10.076;2022-12-07T01:31:54;99849.66;;;-145.95;100.00
37648;BME280;23490;53.656;10.076;2022-12-07T01:34:19;99860.00;;;-145.95;100.00
37648;BME280;23490;53.656;10.076;2022-12-07T01:36:45;99901.31;;;-145.95;100.00
37648;BME280;23490;53.656;10.076;2022-12-07T01:39:10;99864.13;;;-145.95;100.00
37648;BME280;23490;53.656;10.076;2022-12-07T01:41:38;99868.25;;;-145.95;100.00
37648;BME280;23490;53.656;10.076;2022-12-07T01:46:41;99872.38;;;-145.95;100.00
37648;BME280;23490;53.656;10.076;2022-12-07T01:49:12;99855.84;;;-145.95;100.00
37648;BME280;23490;53.656;10.076;2022-12-07T01:51:40;99810.41;;;-145.95;100.00
37648;BME280;23490;53.656;10.076;2022-12-07T01:54:07;99860.00;;;-145.95;100.00
37648;BME280;23490;53.656;10.076;2022-12-07T01:56:33;99880.66;;;-145.95;100.00
37648;BME280;23490;53.656;10.076;2022-12-07T01:58:59;99864.13;;;-145.95;100.00
37648;BME280;23490;53.656;10.076;2022-12-07T02:01:25;99853.78;;;-145.95;100.00
37648;BME280;23490;53.656;10.076;2022-12-07T02:03:52;99880.66;;;-145.95;100.00
37648;BME280;23490;53.656;10.076;2022-12-07T02:06:21;99876.50;;;-145.95;100.00
37648;BME280;23490;53.656;10.076;2022-12-07T02:08:48;99932.28;;;-145.95;100.00
37648;BME280;23490;53.656;10.076;2022-12-07T02:11:14;99857.94;;;-145.95;100.00
37648;BME280;23490;53.656;10.076;2022-12-07T02:13:41;99862.06;;;-145.95;100.00
37648;BME280;23490;53.656;10.076;2022-12-07T02:16:17;99893.03;;;-145.95;100.00
37648;BME280;23490;53.656;10.076;2022-12-07T02:19:08;99862.06;;;-145.95;100.00
37648;BME280;23490;53.656;10.076;2022-12-07T02:22:01;99860.00;;;-145.95;100.00
37648;BME280;23490;53.656;10.076;2022-12-07T02:30:19;99907.50;;;-145.95;100.00
37648;BME280;23490;53.656;10.076;2022-12-07T02:33:04;99847.59;;;-145.95;100.00
37648;BME280;23490;53.656;10.076;2022-12-07T02:35:43;99946.75;;;-145.95;100.00
37648;BME280;23490;53.656;10.076;2022-12-07T02:38:33;99895.09;;;-145.95;100.00
37648;BME280;23490;53.656;10.076;2022-12-07T02:41:17;99884.78;;;-145.95;100.00
37648;BME280;23490;53.656;10.076;2022-12-07T02:43:52;99930.22;;;-145.95;100.00
37648;BME280;23490;53.656;10.076;2022-12-07T02:46:29;99876.50;;;-145.95;100.00
37648;BME280;23490;53.656;10.076;2022-12-07T02:48:56;99860.00;;;-145.95;100.00
37648;BME280;23490;53.656;10.076;2022-12-07T02:51:24;99905.44;;;-145.95;100.00
37648;BME280;23490;53.656;10.076;2022-12-07T02:53:49;99872.38;;;-145.95;100.00
37648;BME280;23490;53.656;10.076;2022-12-07T02:56:30;99942.59;;;-145.95;100.00
37648;BME280;23490;53.656;10.076;2022-12-07T02:59:22;99872.38;;;-145.95;100.00
37648;BME280;23490;53.656;10.076;2022-12-07T03:07:28;99909.56;;;-145.95;100.00
37648;BME280;23490;53.656;10.076;2022-12-07T03:10:03;99930.22;;;-145.95;100.00
37648;BME280;23490;53.656;10.076;2022-12-07T03:12:44;99921.94;;;-145.95;100.00
37648;BME280;23490;53.656;10.076;2022-12-07T03:15:33;99907.50;;;-145.95;100.00
37648;BME280;23490;53.656;10.076;2022-12-07T03:18:02;99938.47;;;-145.95;100.00
37648;BME280;23490;53.656;10.076;2022-12-07T03:20:31;99930.22;;;-145.95;100.00
37648;BME280;23490;53.656;10.076;2022-12-07T03:22:58;99942.59;;;-145.95;100.00
37648;BME280;23490;53.656;10.076;2022-12-07T03:25:25;99946.75;;;-145.95;100.00
37648;BME280;23490;53.656;10.076;2022-12-07T03:27:56;99884.78;;;-145.95;100.00
37648;BME280;23490;53.656;10.076;2022-12-07T03:30:28;99932.28;;;-145.95;100.00
37648;BME280;23490;53.656;10.076;2022-12-07T03:33:03;99930.22;;;-145.95;100.00
37648;BME280;23490;53.656;10.076;2022-12-07T03:35:37;99934.34;;;-145.95;100.00
37648;BME280;23490;53.656;10.076;2022-12-07T03:38:19;99955.00;;;-145.95;100.00
37648;BME280;23490;53.656;10.076;2022-12-07T03:40:50;99919.88;;;-145.95;100.00
37648;BME280;23490;53.656;10.076;2022-12-07T03:43:19;99930.22;;;-145.95;100.00
37648;BME280;23490;53.656;10.076;2022-12-07T03:51:10;99905.44;;;-145.95;100.00
37648;BME280;23490;53.656;10.076;2022-12-07T03:53:42;99934.34;;;-145.95;100.00
37648;BME280;23490;53.656;10.076;2022-12-07T03:56:10;99921.94;;;-145.95;100.00
37648;BME280;23490;53.656;10.076;2022-12-07T03:58:36;99959.13;;;-145.95;100.00
37648;BME280;23490;53.656;10.076;2022-12-07T04:01:02;99996.31;;;-145.95;100.00
37648;BME280;23490;53.656;10.076;2022-12-07T04:03:28;99926.09;;;-145.95;100.00
37648;BME280;23490;53.656;10.076;2022-12-07T04:05:53;99934.34;;;-145.95;100.00
37648;BME280;23490;53.656;10.076;2022-12-07T04:08:19;99938.47;;;-145.95;100.00
37648;BME280;23490;53.656;10.076;2022-12-07T04:10:45;99946.75;;;-145.95;100.00
37648;BME280;23490;53.656;10.076;2022-12-07T04:13:10;99975.66;;;-145.95;100.00
37648;BME280;23490;53.656;10.076;2022-12-07T04:15:35;99963.25;;;-145.95;100.00
37648;BME280;23490;53.656;10.076;2022-12-07T04:18:00;99948.81;;;-145.95;100.00
37648;BME280;23490;53.656;10.076;2022-12-07T04:20:26;99950.88;;;-145.95;100.00
37648;BME280;23490;53.656;10.076;2022-12-07T04:22:52;99950.88;;;-145.95;100.00
37648;BME280;23490;53.656;10.076;2022-12-07T04:25:17;99921.94;;;-145.95;100.00
37648;BME280;23490;53.656;10.076;2022-12-07T04:27:43;99979.78;;;-145.95;100.00
37648;BME280;23490;53.656;10.076;2022-12-07T04:30:08;99979.78;;;-145.95;100.00
37648;BME280;23490;53.656;10.076;2022-12-07T04:32:34;99950.88;;;-145.95;100.00
37648;BME280;23490;53.656;10.076;2022-12-07T04:34:59;99959.13;;;-145.95;100.00
37648;BME280;23490;53.656;10.076;2022-12-07T04:37:25;99955.00;;;-145.95;100.00
37648;BME280;23490;53.656;10.076;2022-12-07T04:39:50;99967.41;;;-145.95;100.00
37648;BME280;23490;53.656;10.076;2022-12-07T04:42:15;99944.69;;;-145.95;100.00
37648;BME280;23490;53.656;10.076;2022-12-07T04:44:41;99917.81;;;-145.95;100.00
37648;BME280;23490;53.656;10.076;2022-12-07T04:47:06;99971.53;;;-145.95;100.00
37648;BME280;23490;53.656;10.076;2022-12-07T04:49:31;99946.75;;;-145.95;100.00
37648;BME280;23490;53.656;10.076;2022-12-07T04:51:57;99979.78;;;-145.95;100.00
37648;BME280;23490;53.656;10.076;2022-12-07T04:54:22;99950.88;;;-145.95;100.00
37648;BME280;23490;53.656;10.076;2022-12-07T04:56:48;99959.13;;;-145.95;100.00
37648;BME280;23490;53.656;10.076;2022-12-07T04:59:15;99944.69;;;-145.95;100.00
37648;BME280;23490;53.656;10.076;2022-12-07T05:01:41;99973.59;;;-145.95;100.00
37648;BME280;23490;53.656;10.076;2022-12-07T05:04:06;99992.19;;;-145.95;100.00
37648;BME280;23490;53.656;10.076;2022-12-07T05:06:32;99971.53;;;-145.95;100.00
37648;BME280;23490;53.656;10.076;2022-12-07T05:08:57;100012.84;;;-145.95;100.00
37648;BME280;23490;53.656;10.076;2022-12-07T05:11:23;99936.41;;;-145.95;100.00
37648;BME280;23490;53.656;10.076;2022-12-07T05:16:32;99942.59;;;-145.95;100.00
37648;BME280;23490;53.656;10.076;2022-12-07T05:18:58;99996.31;;;-145.95;100.00
37648;BME280;23490;53.656;10.076;2022-12-07T05:21:23;99959.13;;;-145.95;100.00
37648;BME280;23490;53.656;10.076;2022-12-07T05:23:49;99990.13;;;-145.95;100.00
37648;BME280;23490;53.656;10.076;2022-12-07T05:26:14;100012.84;;;-145.95;100.00
37648;BME280;23490;53.656;10.076;2022-12-07T05:28:40;99985.97;;;-145.95;100.00
37648;BME280;23490;53.656;10.076;2022-12-07T05:31:06;99992.19;;;-145.95;100.00
37648;BME280;23490;53.656;10.076;2022-12-07T05:33:31;100021.09;;;-145.95;100.00
37648;BME280;23490;53.656;10.076;2022-12-07T05:35:57;99963.25;;;-145.95;100.00
37648;BME280;23490;53.656;10.076;2022-12-07T05:38:22;99992.19;;;-145.95;100.00
37648;BME280;23490;53.656;10.076;2022-12-07T05:40:47;100025.22;;;-145.95;100.00
37648;BME280;23490;53.656;10.076;2022-12-07T05:43:13;99990.13;;;-145.95;100.00
37648;BME280;23490;53.656;10.076;2022-12-07T05:45:38;99990.13;;;-145.95;100.00
37648;BME280;23490;53.656;10.076;2022-12-07T05:48:03;99959.13;;;-145.95;100.00
37648;BME280;23490;53.656;10.076;2022-12-07T05:50:29;99988.06;;;-145.95;100.00
37648;BME280;23490;53.656;10.076;2022-12-07T05:52:54;99985.97;;;-145.95;100.00
37648;BME280;23490;53.656;10.076;2022-12-07T05:55:20;99977.72;;;-145.95;100.00
37648;BME280;23490;53.656;10.076;2022-12-07T05:57:45;99996.31;;;-145.95;100.00
37648;BME280;23490;53.656;10.076;2022-12-07T06:00:31;99996.31;;;-145.95;100.00
37648;BME280;23490;53.656;10.076;2022-12-07T06:02:56;99973.59;;;-145.95;100.00
37648;BME280;23490;53.656;10.076;2022-12-07T06:05:22;99942.59;;;-145.95;100.00
37648;BME280;23490;53.656;10.076;2022-12-07T06:07:48;100006.63;;;-145.95;100.00
37648;BME280;23490;53.656;10.076;2022-12-07T06:10:13;100016.97;;;-145.95;100.00
37648;BME280;23490;53.656;10.076;2022-12-07T06:12:39;99983.91;;;-145.95;100.00
37648;BME280;23490;53.656;10.076;2022-12-07T06:15:08;99955.00;;;-145.95;100.00
37648;BME280;23490;53.656;10.076;2022-12-07T06:17:33;100008.72;;;-145.95;100.00
37648;BME280;23490;53.656;10.076;2022-12-07T06:19:59;99983.91;;;-145.95;100.00
37648;BME280;23490;53.656;10.076;2022-12-07T06:22:24;100000.44;;;-145.95;100.00
37648;BME280;23490;53.656;10.076;2022-12-07T06:24:50;99983.91;;;-145.95;100.00
37648;BME280;23490;53.656;10.076;2022-12-07T06:27:15;99998.38;;;-145.95;100.00
37648;BME280;23490;53.656;10.076;2022-12-07T06:29:40;99969.47;;;-145.95;100.00
37648;BME280;23490;53.656;10.076;2022-12-07T06:32:06;100004.56;;;-145.95;100.00
37648;BME280;23490;53.656;10.076;2022-12-07T06:34:31;100012.84;;;-145.95;100.00
37648;BME280;23490;53.656;10.076;2022-12-07T06:36:57;100012.84;;;-145.95;100.00
37648;BME280;23490;53.656;10.076;2022-12-07T06:39:25;99990.13;;;-145.95;100.00
37648;BME280;23490;53.656;10.076;2022-12-07T06:41:51;100025.22;;;-145.95;100.00
37648;BME280;23490;53.656;10.076;2022-12-07T06:44:20;100016.97;;;-145.95;100.00
37648;BME280;23490;53.656;10.076;2022-12-07T06:46:46;100019.03;;;-145.95;100.00
37648;BME280;23490;53.656;10.076;2022-12-07T06:49:11;99963.25;;;-145.95;100.00
37648;BME280;23490;53.656;10.076;2022-12-07T06:51:37;100033.50;;;-145.95;100.00
37648;BME280;23490;53.656;10.076;2022-12-07T06:54:07;100012.84;;;-145.95;100.00
37648;BME280;23490;53.656;10.076;2022-12-07T06:56:32;99983.91;;;-145.95;100.00
37648;BME280;23490;53.656;10.076;2022-12-07T06:58:57;99965.34;;;-145.95;100.00
37648;BME280;23490;53.656;10.076;2022-12-07T07:01:23;99979.78;;;-145.95;100.00
37648;BME280;23490;53.656;10.076;2022-12-07T07:03:48;99967.41;;;-145.95;100.00
37648;BME280;23490;53.656;10.076;2022-12-07T07:06:14;100041.75;;;-145.95;100.00
37648;BME280;23490;53.656;10.076;2022-12-07T07:08:40;99979.78;;;-145.95;100.00
37648;BME280;23490;53.656;10.076;2022-12-07T07:11:06;100008.72;;;-145.95;100.00
37648;BME280;23490;53.656;10.076;2022-12-07T07:13:32;99988.06;;;-145.95;100.00
37648;BME280;23490;53.656;10.076;2022-12-07T07:15:58;100000.44;;;-145.95;100.00
37648;BME280;23490;53.656;10.076;2022-12-07T07:18:24;99977.72;;;-145.95;100.00
37648;BME280;23490;53.656;10.076;2022-12-07T07:20:50;99979.78;;;-145.95;100.00
37648;BME280;23490;53.656;10.076;2022-12-07T07:23:16;99988.06;;;-145.95;100.00
37648;BME280;23490;53.656;10.076;2022-12-07T07:25:41;99996.31;;;-145.95;100.00
37648;BME280;23490;53.656;10.076;2022-12-07T07:28:06;99985.97;;;-145.95;100.00
37648;BME280;23490;53.656;10.076;2022-12-07T07:30:32;100008.72;;;-145.95;100.00
37648;BME280;23490;53.656;10.076;2022-12-07T07:32:59;99967.41;;;-145.95;100.00
37648;BME280;23490;53.656;10.076;2022-12-07T07:35:26;99963.25;;;-145.95;100.00
37648;BME280;23490;53.656;10.076;2022-12-07T07:37:52;99957.06;;;-145.95;100.00
37648;BME280;23490;53.656;10.076;2022-12-07T07:40:18;99988.06;;;-145.95;100.00
37648;BME280;23490;53.656;10.076;2022-12-07T07:42:43;99983.91;;;-145.95;100.00
37648;BME280;23490;53.656;10.076;2022-12-07T07:45:09;99967.41;;;-145.95;100.00
37648;BME280;23490;53.656;10.076;2022-12-07T07:47:34;99979.78;;;-145.95;100.00
37648;BME280;23490;53.656;10.076;2022-12-07T07:49:59;99946.75;;;-145.95;100.00
37648;BME280;23490;53.656;10.076;2022-12-07T07:52:25;99942.59;;;-145.95;100.00
37648;BME280;23490;53.656;10.076;2022-12-07T07:54:51;99942.59;;;-145.95;100.00
37648;BME280;23490;53.656;10.076;2022-12-07T07:57:17;99965.34;;;-145.95;100.00
37648;BME280;23490;53.656;10.076;2022-12-07T07:59:42;99938.47;;;-145.95;100.00
37648;BME280;23490;53.656;10.076;2022-12-07T08:02:16;99926.09;;;-145.95;100.00
37648;BME280;23490;53.656;10.076;2022-12-07T08:04:41;99955.00;;;-145.95;100.00
37648;BME280;23490;53.656;10.076;2022-12-07T08:07:07;99932.28;;;-145.95;100.00
37648;BME280;23490;53.656;10.076;2022-12-07T08:09:32;99950.88;;;-145.95;100.00
37648;BME280;23490;53.656;10.076;2022-12-07T08:11:57;99963.25;;;-145.95;100.00
37648;BME280;23490;53.656;10.076;2022-12-07T08:14:24;99950.88;;;-145.95;100.00
37648;BME280;23490;53.656;10.076;2022-12-07T08:16:49;99946.75;;;-145.95;100.00
37648;BME280;23490;53.656;10.076;2022-12-07T08:19:16;99957.06;;;-145.95;100.00
37648;BME280;23490;53.656;10.076;2022-12-07T08:21:41;99979.78;;;-145.95;100.00
37648;BME280;23490;53.656;10.076;2022-12-07T08:24:07;99975.66;;;-145.95;100.00
37648;BME280;23490;53.656;10.076;2022-12-07T08:26:32;99967.41;;;-145.95;100.00
37648;BME280;23490;53.656;10.076;2022-12-07T08:28:58;99934.34;;;-145.95;100.00
37648;BME280;23490;53.656;10.076;2022-12-07T08:31:24;99965.34;;;-145.95;100.00
37648;BME280;23490;53.656;10.076;2022-12-07T08:33:49;99938.47;;;-145.95;100.00
37648;BME280;23490;53.656;10.076;2022-12-07T08:36:15;99946.75;;;-145.95;100.00
37648;BME280;23490;53.656;10.076;2022-12-07T08:38:41;99977.72;;;-145.95;100.00
37648;BME280;23490;53.656;10.076;2022-12-07T08:41:07;99942.59;;;-145.95;100.00
37648;BME280;23490;53.656;10.076;2022-12-07T08:43:33;99917.81;;;-145.95;100.00
37648;BME280;23490;53.656;10.076;2022-12-07T08:47:07;99963.25;;;-145.95;100.00
37648;BME280;23490;53.656;10.076;2022-12-07T08:49:30;99938.47;;;-145.95;100.00
37648;BME280;23490;53.656;10.076;2022-12-07T08:51:57;99897.16;;;-145.95;100.00
37648;BME280;23490;53.656;10.076;2022-12-07T08:54:22;99911.63;;;-145.95;100.00
37648;BME280;23490;53.656;10.076;2022-12-07T08:56:48;99897.16;;;-145.95;100.00
37648;BME280;23490;53.656;10.076;2022-12-07T08:59:17;99880.66;;;-145.95;100.00
37648;BME280;23490;53.656;10.076;2022-12-07T09:01:43;99913.69;;;-145.95;100.00
37648;BME280;23490;53.656;10.076;2022-12-07T09:04:09;99950.88;;;-145.95;100.00
37648;BME280;23490;53.656;10.076;2022-12-07T09:06:34;99878.56;;;-145.95;100.00
37648;BME280;23490;53.656;10.076;2022-12-07T09:09:00;99876.50;;;-145.95;100.00
37648;BME280;23490;53.656;10.076;2022-12-07T09:11:26;99944.69;;;-145.95;100.00
37648;BME280;23490;53.656;10.076;2022-12-07T09:13:52;99893.03;;;-145.95;100.00
37648;BME280;23490;53.656;10.076;2022-12-07T09:16:17;99897.16;;;-145.95;100.00
37648;BME280;23490;53.656;10.076;2022-12-07T09:18:43;99855.84;;;-145.95;100.00
37648;BME280;23490;53.656;10.076;2022-12-07T09:21:08;99851.72;;;-145.95;100.00
37648;BME280;23490;53.656;10.076;2022-12-07T09:23:34;99888.91;;;-145.95;100.00
37648;BME280;23490;53.656;10.076;2022-12-07T09:26:01;99872.38;;;-145.95;100.00
37648;BME280;23490;53.656;10.076;2022-12-07T09:28:26;99868.25;;;-145.95;100.00
37648;BME280;23490;53.656;10.076;2022-12-07T09:30:51;99905.44;;;-145.95;100.00
37648;BME280;23490;53.656;10.076;2022-12-07T09:33:17;99909.56;;;-145.95;100.00
37648;BME280;23490;53.656;10.076;2022-12-07T09:35:46;99899.22;;;-145.95;100.00
37648;BME280;23490;53.656;10.076;2022-12-07T09:38:12;99864.13;;;-145.95;100.00
37648;BME280;23490;53.656;10.076;2022-12-07T09:40:37;99855.84;;;-145.95;100.00
37648;BME280;23490;53.656;10.076;2022-12-07T09:43:03;99880.66;;;-145.95;100.00
37648;BME280;23490;53.656;10.076;2022-12-07T09:45:36;99835.19;;;-145.95;100.00
37648;BME280;23490;53.656;10.076;2022-12-07T09:48:03;99839.34;;;-145.95;100.00
37648;BME280;23490;53.656;10.076;2022-12-07T09:50:29;99860.00;;;-145.95;100.00
37648;BME280;23490;53.656;10.076;2022-12-07T09:53:07;99851.72;;;-145.95;100.00
37648;BME280;23490;53.656;10.076;2022-12-07T09:55:33;99874.44;;;-145.95;100.00
37648;BME280;23490;53.656;10.076;2022-12-07T09:57:59;99860.00;;;-145.95;100.00
37648;BME280;23490;53.656;10.076;2022-12-07T10:00:24;99847.59;;;-145.95;100.00
37648;BME280;23490;53.656;10.076;2022-12-07T10:02:56;99818.69;;;-145.95;100.00
37648;BME280;23490;53.656;10.076;2022-12-07T10:05:26;99800.09;;;-145.95;100.00
37648;BME280;23490;53.656;10.076;2022-12-07T10:07:52;99847.59;;;-145.95;100.00
37648;BME280;23490;53.656;10.076;2022-12-07T10:10:27;99831.06;;;-145.95;100.00
37648;BME280;23490;53.656;10.076;2022-12-07T10:12:55;99814.56;;;-145.95;100.00
37648;BME280;23490;53.656;10.076;2022-12-07T10:15:21;99849.66;;;-145.95;100.00
37648;BME280;23490;53.656;10.076;2022-12-07T10:17:52;99833.13;;;-145.95;100.00
37648;BME280;23490;53.656;10.076;2022-12-07T10:20:19;99820.75;;;-145.95;100.00
37648;BME280;23490;53.656;10.076;2022-12-07T10:23:08;99847.59;;;-145.95;100.00
37648;BME280;23490;53.656;10.076;2022-12-07T10:25:38;99814.56;;;-145.95;100.00
37648;BME280;23490;53.656;10.076;2022-12-07T10:33:31;99789.75;;;-145.95;100.00
37648;BME280;23490;53.656;10.076;2022-12-07T10:35:57;99843.47;;;-145.95;100.00
37648;BME280;23490;53.656;10.076;2022-12-07T10:38:25;99789.75;;;-145.95;100.00
37648;BME280;23490;53.656;10.076;2022-12-07T10:41:03;99806.28;;;-145.95;100.00
37648;BME280;23490;53.656;10.076;2022-12-07T10:43:29;99835.19;;;-145.95;100.00
37648;BME280;23490;53.656;10.076;2022-12-07T10:51:46;99826.94;;;-145.95;100.00
37648;BME280;23490;53.656;10.076;2022-12-07T10:54:43;99773.25;;;-145.95;100.00
37648;BME280;23490;53.656;10.076;2022-12-07T11:00:21;99793.91;;;-145.95;100.00
37648;BME280;23490;53.656;10.076;2022-12-07T11:05:31;99764.97;;;-145.95;100.00
37648;BME280;23490;53.656;10.076;2022-12-07T11:08:11;99756.72;;;-145.95;100.00
37648;BME280;23490;53.656;10.076;2022-12-07T11:10:55;99748.44;;;-145.95;100.00
37648;BME280;23490;53.656;10.076;2022-12-07T11:13:46;99734.00;;;-145.95;100.00
37648;BME280;23490;53.656;10.076;2022-12-07T11:16:24;99764.97;;;-145.95;100.00
37648;BME280;23490;53.656;10.076;2022-12-07T11:19:01;99748.44;;;-145.95;100.00
37648;BME280;23490;53.656;10.076;2022-12-07T11:24:17;99760.84;;;-145.95;100.00
37648;BME280;23490;53.656;10.076;2022-12-07T11:29:25;99748.44;;;-145.95;100.00
37648;BME280;23490;53.656;10.076;2022-12-07T11:32:13;99764.97;;;-145.95;100.00
37648;BME280;23490;53.656;10.076;2022-12-07T11:35:00;99769.13;;;-145.95;100.00
37648;BME280;23490;53.656;10.076;2022-12-07T11:37:33;99785.63;;;-145.95;99.03
37648;BME280;23490;53.656;10.076;2022-12-07T11:40:05;99738.13;;;-145.95;100.00
37648;BME280;23490;53.656;10.076;2022-12-07T11:42:50;99698.88;;;-145.95;98.90
37648;BME280;23490;53.656;10.076;2022-12-07T11:45:23;99731.94;;;-145.95;99.20
37648;BME280;23490;53.656;10.076;2022-12-07T11:48:10;99736.06;;;-145.95;97.58
37648;BME280;23490;53.656;10.076;2022-12-07T11:50:50;99756.72;;;-145.95;98.64
37648;BME280;23490;53.656;10.076;2022-12-07T11:53:22;99717.47;;;-145.95;96.78
37648;BME280;23490;53.656;10.076;2022-12-07T11:55:57;99727.81;;;-145.95;97.12
37648;BME280;23490;53.656;10.076;2022-12-07T12:03:38;99690.63;;;-145.95;92.39
37648;BME280;23490;53.656;10.076;2022-12-07T12:06:05;99703.00;;;-145.95;92.12
37648;BME280;23490;53.656;10.076;2022-12-07T12:08:35;99719.53;;;-145.95;91.62
37648;BME280;23490;53.656;10.076;2022-12-07T12:11:19;99752.59;;;-145.95;91.38
37648;BME280;23490;53.656;10.076;2022-12-07T12:19:40;99715.41;;;-145.95;88.27
37648;BME280;23490;53.656;10.076;2022-12-07T12:22:17;99740.19;;;-145.95;88.74
37648;BME280;23490;53.656;10.076;2022-12-07T12:24:46;99703.00;;;-145.95;89.16
37648;BME280;23490;53.656;10.076;2022-12-07T12:27:26;99750.53;;;-145.95;88.67
37648;BME280;23490;53.656;10.076;2022-12-07T12:29:59;99721.59;;;-145.95;88.88
37648;BME280;23490;53.656;10.076;2022-12-07T12:32:39;99731.94;;;-145.95;86.78
37648;BME280;23490;53.656;10.076;2022-12-07T12:35:26;99688.56;;;-145.95;86.05
37648;BME280;23490;53.656;10.076;2022-12-07T12:37:53;99738.13;;;-145.95;84.98
37648;BME280;23490;53.656;10.076;2022-12-07T12:42:51;99740.19;;;-145.95;80.37
37648;BME280;23490;53.656;10.076;2022-12-07T12:45:27;99690.63;;;-145.95;80.15
37648;BME280;23490;53.656;10.076;2022-12-07T12:50:36;99729.88;;;-145.95;79.88
37648;BME280;23490;53.656;10.076;2022-12-07T12:53:16;99738.13;;;-145.95;78.56
37648;BME280;23490;53.656;10.076;2022-12-07T12:55:58;99707.16;;;-145.95;77.34
37648;BME280;23490;53.656;10.076;2022-12-07T12:58:37;99769.13;;;-145.95;79.46
37648;BME280;23490;53.656;10.076;2022-12-07T13:01:41;99700.94;;;-145.95;75.78
37648;BME280;23490;53.656;10.076;2022-12-07T13:04:47;99723.66;;;-145.95;76.06
37648;BME280;23490;53.656;10.076;2022-12-07T13:10:39;99764.97;;;-145.95;77.21
37648;BME280;23490;53.656;10.076;2022-12-07T13:20:52;99725.75;;;-145.95;76.02
37648;BME280;23490;53.656;10.076;2022-12-07T13:28:51;99715.41;;;-145.95;73.19
37648;BME280;23490;53.656;10.076;2022-12-07T13:33:54;99686.50;;;-145.95;73.54
37648;BME280;23490;53.656;10.076;2022-12-07T13:36:26;99723.66;;;-145.95;73.65
37648;BME280;23490;53.656;10.076;2022-12-07T13:39:17;99674.09;;;-145.95;72.87
37648;BME280;23490;53.656;10.076;2022-12-07T13:41:44;99711.28;;;-145.95;73.07
37648;BME280;23490;53.656;10.076;2022-12-07T13:44:15;99719.53;;;-145.95;72.95
37648;BME280;23490;53.656;10.076;2022-12-07T13:47:04;99715.41;;;-145.95;72.56
37648;BME280;23490;53.656;10.076;2022-12-07T13:49:38;99707.16;;;-145.95;71.01
37648;BME280;23490;53.656;10.076;2022-12-07T13:52:30;99711.28;;;-145.95;71.97